createdAt,value
2018-12-02T00:00:34.373Z,-0.60
2018-12-02T00:03:04.026Z,-0.60
2018-12-02T00:05:32.581Z,-0.50
2018-12-02T00:08:01.100Z,-0.60
2018-12-02T00:10:29.707Z,-0.50
2018-12-02T00:12:58.264Z,-0.50
2018-12-02T00:15:28.016Z,-0.50
2018-12-02T00:17:58.528Z,-0.50
2018-12-02T00:20:27.108Z,-0.50
2018-12-02T00:22:55.661Z,-0.50
2018-12-02T00:25:24.205Z,-0.50
2018-12-02T00:27:54.856Z,-0.50
2018-12-02T00:30:24.505Z,-0.50
2018-12-02T00:32:53.136Z,-0.50
2018-12-02T00:35:21.782Z,-0.50
2018-12-02T00:37:51.622Z,-0.40
2018-12-02T00:40:21.252Z,-0.50
2018-12-02T00:46:00.436Z,-0.40
2018-12-02T00:48:29.024Z,-0.50
2018-12-02T00:50:57.578Z,-0.40
2018-12-02T00:53:26.160Z,-0.40
2018-12-02T00:56:01.801Z,-0.40
2018-12-02T00:58:30.418Z,-0.40
2018-12-02T01:00:58.937Z,-0.40
2018-12-02T01:03:27.484Z,-0.40
2018-12-02T01:05:55.980Z,-0.40
2018-12-02T01:08:24.488Z,-0.40
2018-12-02T01:10:53.123Z,-0.40
2018-12-02T01:13:21.624Z,-0.40
2018-12-02T01:15:50.140Z,-0.40
2018-12-02T01:18:18.639Z,-0.40
2018-12-02T01:20:47.156Z,-0.40
2018-12-02T01:23:15.681Z,-0.30
2018-12-02T01:25:44.215Z,-0.30
2018-12-02T01:28:12.739Z,-0.30
2018-12-02T01:30:41.227Z,-0.30
2018-12-02T01:33:09.715Z,-0.30
2018-12-02T01:35:38.202Z,-0.30
2018-12-02T01:38:06.702Z,-0.30
2018-12-02T01:40:35.219Z,-0.30
2018-12-02T01:43:03.703Z,-0.30
2018-12-02T01:45:32.218Z,-0.30
2018-12-02T01:48:00.963Z,-0.30
2018-12-02T01:50:29.471Z,-0.30
2018-12-02T01:52:58.028Z,-0.30
2018-12-02T01:55:26.514Z,-0.30
2018-12-02T01:57:55.026Z,-0.30
2018-12-02T02:00:24.770Z,-0.30
2018-12-02T02:02:53.737Z,-0.30
2018-12-02T02:05:23.041Z,-0.30
2018-12-02T02:07:51.578Z,-0.30
2018-12-02T02:10:23.254Z,-0.30
2018-12-02T02:12:51.809Z,-0.30
2018-12-02T02:15:20.574Z,-0.30
2018-12-02T02:17:49.230Z,-0.30
2018-12-02T02:20:19.866Z,-0.30
2018-12-02T02:22:48.730Z,-0.30
2018-12-02T02:25:18.146Z,-0.30
2018-12-02T02:27:48.617Z,-0.30
2018-12-02T02:30:26.003Z,-0.30
2018-12-02T02:32:54.540Z,-0.30
2018-12-02T02:35:23.441Z,-0.30
2018-12-02T02:37:53.845Z,-0.30
2018-12-02T02:40:26.608Z,-0.40
2018-12-02T02:42:55.119Z,-0.40
2018-12-02T02:45:23.673Z,-0.40
2018-12-02T02:47:52.185Z,-0.40
2018-12-02T02:50:23.470Z,-0.40
2018-12-02T02:52:53.254Z,-0.50
2018-12-02T02:55:21.788Z,-0.50
2018-12-02T02:57:50.293Z,-0.50
2018-12-02T03:00:20.885Z,-0.60
2018-12-02T03:02:49.437Z,-0.60
2018-12-02T03:05:18.109Z,-0.60
2018-12-02T03:07:46.666Z,-0.70
2018-12-02T03:10:16.097Z,-0.70
2018-12-02T03:12:46.426Z,-0.80
2018-12-02T03:15:16.009Z,-0.90
2018-12-02T03:17:44.630Z,-0.90
2018-12-02T03:20:16.861Z,-1.00
2018-12-02T03:22:48.181Z,-1.00
2018-12-02T03:25:17.668Z,-0.90
2018-12-02T03:27:46.216Z,-0.90
2018-12-02T03:30:17.701Z,-0.80
2018-12-02T03:32:46.448Z,-0.70
2018-12-02T03:35:29.712Z,-0.70
2018-12-02T03:37:58.252Z,-0.60
2018-12-02T03:40:27.651Z,-0.60
2018-12-02T03:42:56.252Z,-0.60
2018-12-02T03:45:25.704Z,-0.50
2018-12-02T03:47:54.259Z,-0.50
2018-12-02T03:50:23.596Z,-0.50
2018-12-02T03:52:52.149Z,-0.50
2018-12-02T03:55:20.662Z,-0.40
2018-12-02T03:57:49.212Z,-0.40
2018-12-02T04:00:21.571Z,-0.40
2018-12-02T04:02:50.577Z,-0.40
2018-12-02T04:05:20.216Z,-0.40
2018-12-02T04:07:48.833Z,-0.40
2018-12-02T04:10:18.900Z,-0.40
2018-12-02T04:12:48.518Z,-0.40
2018-12-02T04:15:21.932Z,-0.40
2018-12-02T04:17:50.444Z,-0.40
2018-12-02T04:20:19.572Z,-0.40
2018-12-02T04:22:49.071Z,-0.30
2018-12-02T04:25:18.581Z,-0.30
2018-12-02T04:30:17.036Z,-0.30
2018-12-02T04:32:46.140Z,-0.30
2018-12-02T04:35:16.824Z,-0.30
2018-12-02T04:37:45.389Z,-0.20
2018-12-02T04:40:14.611Z,-0.20
2018-12-02T04:42:43.143Z,-0.20
2018-12-02T04:45:14.672Z,-0.20
2018-12-02T04:47:43.188Z,-0.20
2018-12-02T04:50:16.532Z,-0.20
2018-12-02T04:52:45.088Z,-0.20
2018-12-02T04:55:13.646Z,-0.20
2018-12-02T04:57:42.249Z,-0.20
2018-12-02T05:00:12.840Z,-0.20
2018-12-02T05:02:41.412Z,-0.20
2018-12-02T05:05:10.965Z,-0.30
2018-12-02T05:07:40.180Z,-0.30
2018-12-02T05:10:13.876Z,-0.40
2018-12-02T05:12:42.572Z,-0.40
2018-12-02T05:15:11.996Z,-0.40
2018-12-02T05:17:40.543Z,-0.40
2018-12-02T05:20:13.951Z,-0.40
2018-12-02T05:22:42.573Z,-0.40
2018-12-02T05:25:17.622Z,-0.40
2018-12-02T05:27:42.693Z,-0.40
2018-12-02T05:30:14.002Z,-0.40
2018-12-02T05:32:42.596Z,-0.40
2018-12-02T05:35:12.211Z,-0.40
2018-12-02T05:37:40.747Z,-0.40
2018-12-02T05:40:12.067Z,-0.40
2018-12-02T05:42:40.603Z,-0.30
2018-12-02T05:45:10.365Z,-0.30
2018-12-02T05:47:38.887Z,-0.30
2018-12-02T05:50:14.019Z,-0.30
2018-12-02T05:52:42.626Z,-0.30
2018-12-02T05:55:12.319Z,-0.20
2018-12-02T05:57:40.827Z,-0.20
2018-12-02T06:00:14.607Z,-0.20
2018-12-02T06:02:43.239Z,-0.20
2018-12-02T06:05:12.231Z,-0.10
2018-12-02T06:07:40.851Z,-0.20
2018-12-02T06:10:11.458Z,-0.10
2018-12-02T06:12:39.971Z,-0.10
2018-12-02T06:15:13.206Z,-0.10
2018-12-02T06:17:41.707Z,-0.10
2018-12-02T06:20:11.780Z,-0.10
2018-12-02T06:22:40.291Z,-0.10
2018-12-02T06:25:09.531Z,-0.10
2018-12-02T06:27:38.358Z,-0.10
2018-12-02T06:30:16.833Z,-0.10
2018-12-02T06:32:46.067Z,-0.10
2018-12-02T06:35:14.950Z,-0.10
2018-12-02T06:37:43.642Z,-0.10
2018-12-02T06:40:16.247Z,-0.10
2018-12-02T06:42:44.762Z,-0.10
2018-12-02T06:45:13.895Z,-0.20
2018-12-02T06:47:42.470Z,-0.20
2018-12-02T06:50:16.022Z,-0.20
2018-12-02T06:52:44.722Z,-0.30
2018-12-02T06:55:22.246Z,-0.30
2018-12-02T06:57:54.618Z,-0.30
2018-12-02T07:00:39.717Z,-0.20
2018-12-02T07:03:26.434Z,-0.20
2018-12-02T07:05:54.930Z,-0.20
2018-12-02T07:08:23.441Z,-0.20
2018-12-02T07:10:52.098Z,-0.20
2018-12-02T07:13:20.709Z,-0.20
2018-12-02T07:15:49.221Z,-0.20
2018-12-02T07:18:21.354Z,-0.20
2018-12-02T07:20:50.641Z,-0.10
2018-12-02T07:23:19.162Z,-0.10
2018-12-02T07:25:49.129Z,-0.10
2018-12-02T07:28:17.625Z,-0.10
2018-12-02T07:30:46.161Z,0.00
2018-12-02T07:33:14.705Z,0.00
2018-12-02T07:35:43.329Z,0.00
2018-12-02T07:38:16.905Z,0.00
2018-12-02T07:40:45.658Z,0.00
2018-12-02T07:43:14.165Z,0.10
2018-12-02T07:45:42.681Z,0.10
2018-12-02T07:48:11.181Z,0.10
2018-12-02T07:50:40.205Z,0.00
2018-12-02T07:53:08.349Z,0.00
2018-12-02T07:55:37.292Z,0.00
2018-12-02T07:58:06.620Z,0.00
2018-12-02T08:00:35.121Z,0.00
2018-12-02T08:03:03.661Z,0.00
2018-12-02T08:05:32.153Z,0.00
2018-12-02T08:08:00.665Z,0.00
2018-12-02T08:10:29.508Z,0.10
2018-12-02T08:12:58.116Z,0.10
2018-12-02T08:15:26.644Z,0.20
2018-12-02T08:17:55.132Z,0.20
2018-12-02T08:20:23.648Z,0.20
2018-12-02T08:22:52.240Z,0.30
2018-12-02T08:25:20.843Z,0.30
2018-12-02T08:27:49.402Z,0.40
2018-12-02T08:30:20.068Z,0.40
2018-12-02T08:32:48.580Z,0.50
2018-12-02T08:35:18.328Z,0.50
2018-12-02T08:37:48.167Z,0.60
2018-12-02T08:40:16.670Z,0.60
2018-12-02T08:42:45.187Z,0.70
2018-12-02T08:45:15.543Z,0.70
2018-12-02T08:47:44.563Z,0.80
2018-12-02T08:50:14.198Z,0.80
2018-12-02T08:52:42.770Z,0.80
2018-12-02T08:55:13.122Z,0.80
2018-12-02T08:57:41.614Z,0.90
2018-12-02T09:00:15.315Z,0.90
2018-12-02T09:02:47.723Z,0.90
2018-12-02T09:05:16.338Z,1.00
2018-12-02T09:07:44.895Z,1.00
2018-12-02T09:10:17.556Z,1.10
2018-12-02T09:12:46.403Z,1.00
2018-12-02T09:15:15.199Z,1.00
2018-12-02T09:17:43.511Z,1.00
2018-12-02T09:20:14.297Z,1.00
2018-12-02T09:22:42.868Z,1.00
2018-12-02T09:25:11.422Z,1.00
2018-12-02T09:27:39.932Z,1.00
2018-12-02T09:30:13.483Z,1.10
2018-12-02T09:32:42.352Z,1.00
2018-12-02T09:35:11.187Z,1.10
2018-12-02T09:37:39.746Z,1.10
2018-12-02T09:40:10.261Z,1.10
2018-12-02T09:42:39.066Z,1.20
2018-12-02T09:45:26.350Z,1.20
2018-12-02T09:47:56.110Z,1.30
2018-12-02T09:50:24.615Z,1.30
2018-12-02T09:52:53.365Z,1.40
2018-12-02T09:55:40.222Z,1.50
2018-12-02T09:58:38.786Z,1.70
2018-12-02T10:01:07.483Z,1.90
2018-12-02T10:03:36.043Z,2.10
2018-12-02T10:06:04.591Z,2.20
2018-12-02T10:08:33.106Z,2.30
2018-12-02T10:11:01.610Z,2.30
2018-12-02T10:13:30.395Z,2.30
2018-12-02T10:15:58.901Z,2.40
2018-12-02T10:18:27.434Z,2.30
2018-12-02T10:20:55.946Z,2.30
2018-12-02T10:23:24.498Z,2.30
2018-12-02T10:25:53.015Z,2.20
2018-12-02T10:28:21.515Z,2.20
2018-12-02T10:30:49.996Z,2.20
2018-12-02T10:33:18.490Z,2.30
2018-12-02T10:35:47.018Z,2.20
2018-12-02T10:38:15.521Z,2.20
2018-12-02T10:40:44.006Z,2.20
2018-12-02T10:43:12.541Z,2.20
2018-12-02T10:45:41.065Z,2.20
2018-12-02T10:48:10.945Z,2.20
2018-12-02T10:50:39.568Z,2.30
2018-12-02T10:53:11.378Z,2.30
2018-12-02T10:55:41.533Z,2.30
2018-12-02T10:58:11.825Z,2.40
2018-12-02T11:00:45.834Z,2.40
2018-12-02T11:03:14.385Z,2.40
2018-12-02T11:05:42.916Z,2.40
2018-12-02T11:08:11.438Z,2.40
2018-12-02T11:10:40.066Z,2.40
2018-12-02T11:13:08.594Z,2.40
2018-12-02T11:15:37.169Z,2.40
2018-12-02T11:18:07.940Z,2.40
2018-12-02T11:20:35.825Z,2.40
2018-12-02T11:23:04.394Z,2.40
2018-12-02T11:25:32.931Z,2.40
2018-12-02T11:28:01.457Z,2.40
2018-12-02T11:30:30.029Z,2.40
2018-12-02T11:32:58.561Z,2.30
2018-12-02T11:35:27.072Z,2.30
2018-12-02T11:37:55.553Z,2.20
2018-12-02T11:40:24.058Z,2.10
2018-12-02T11:42:53.365Z,2.10
2018-12-02T11:45:21.893Z,2.00
2018-12-02T11:47:52.444Z,2.00
2018-12-02T11:50:22.832Z,1.90
2018-12-02T11:52:51.329Z,1.90
2018-12-02T11:55:20.846Z,1.90
2018-12-02T11:57:49.422Z,1.90
2018-12-02T12:00:21.800Z,1.80
2018-12-02T12:02:50.421Z,1.80
2018-12-02T12:05:19.014Z,1.90
2018-12-02T12:07:48.456Z,1.90
2018-12-02T12:10:19.872Z,1.90
2018-12-02T12:12:49.204Z,1.90
2018-12-02T12:15:18.748Z,1.90
2018-12-02T12:17:47.336Z,2.00
2018-12-02T12:20:21.909Z,2.00
2018-12-02T12:22:50.452Z,2.20
2018-12-02T12:25:18.999Z,2.40
2018-12-02T12:27:47.707Z,2.60
2018-12-02T12:30:18.277Z,2.80
2018-12-02T12:32:46.794Z,3.00
2018-12-02T12:35:16.423Z,3.20
2018-12-02T12:40:23.261Z,3.40
2018-12-02T12:42:59.692Z,3.50
2018-12-02T12:45:28.256Z,3.40
2018-12-02T12:47:56.788Z,3.50
2018-12-02T12:50:25.323Z,3.50
2018-12-02T12:52:53.840Z,3.60
2018-12-02T12:55:22.359Z,3.60
2018-12-02T12:57:50.892Z,3.60
2018-12-02T13:00:20.804Z,3.50
2018-12-02T13:02:49.411Z,3.30
2018-12-02T13:05:21.841Z,3.20
2018-12-02T13:07:50.637Z,3.10
2018-12-02T13:10:19.388Z,3.00
2018-12-02T13:12:47.951Z,2.90
2018-12-02T13:15:17.582Z,2.90
2018-12-02T13:17:55.178Z,2.80
2018-12-02T13:20:24.457Z,2.80
2018-12-02T13:22:52.991Z,2.70
2018-12-02T13:25:21.521Z,2.70
2018-12-02T13:27:50.275Z,2.60
2018-12-02T13:30:19.859Z,2.50
2018-12-02T13:32:52.212Z,2.50
2018-12-02T13:35:20.895Z,2.40
2018-12-02T13:37:49.415Z,2.40
2018-12-02T13:40:21.858Z,2.40
2018-12-02T13:42:55.021Z,2.40
2018-12-02T13:45:25.482Z,2.30
2018-12-02T13:47:54.023Z,2.30
2018-12-02T13:50:22.676Z,2.30
2018-12-02T13:52:53.043Z,2.30
2018-12-02T13:55:23.611Z,2.30
2018-12-02T13:57:52.142Z,2.30
2018-12-02T14:00:25.618Z,2.30
2018-12-02T14:02:58.238Z,2.20
2018-12-02T14:05:26.778Z,2.20
2018-12-02T14:07:55.298Z,2.20
2018-12-02T14:10:23.826Z,2.10
2018-12-02T14:12:55.958Z,2.10
2018-12-02T14:15:35.425Z,2.10
2018-12-02T14:18:07.894Z,2.10
2018-12-02T14:20:36.434Z,2.10
2018-12-02T14:23:05.070Z,2.10
2018-12-02T14:25:33.596Z,2.10
2018-12-02T14:28:02.130Z,2.10
2018-12-02T14:30:30.658Z,2.10
2018-12-02T14:32:59.158Z,2.10
2018-12-02T14:35:27.722Z,2.10
2018-12-02T14:37:56.210Z,2.10
2018-12-02T14:40:24.710Z,2.10
2018-12-02T14:42:53.242Z,2.10
2018-12-02T14:45:21.754Z,2.10
2018-12-02T14:47:50.286Z,2.10
2018-12-02T14:50:18.869Z,2.20
2018-12-02T14:52:48.480Z,2.10
2018-12-02T14:55:18.267Z,2.10
2018-12-02T14:57:46.786Z,2.20
2018-12-02T15:00:16.382Z,2.20
2018-12-02T15:02:44.997Z,2.20
2018-12-02T15:05:14.154Z,2.20
2018-12-02T15:07:44.309Z,2.20
2018-12-02T15:10:17.533Z,2.20
2018-12-02T15:12:47.374Z,2.20
2018-12-02T15:15:16.813Z,2.20
2018-12-02T15:17:46.510Z,2.20
2018-12-02T15:20:19.990Z,2.20
2018-12-02T15:22:48.569Z,2.20
2018-12-02T15:25:17.057Z,2.20
2018-12-02T15:27:45.869Z,2.20
2018-12-02T15:30:15.338Z,2.20
2018-12-02T15:32:47.041Z,2.20
2018-12-02T15:35:23.125Z,2.20
2018-12-02T15:37:51.653Z,2.20
2018-12-02T15:40:20.196Z,2.20
2018-12-02T15:42:50.936Z,2.20
2018-12-02T15:45:20.018Z,2.20
2018-12-02T15:47:48.541Z,2.20
2018-12-02T15:50:19.097Z,2.20
2018-12-02T15:52:47.653Z,2.20
2018-12-02T15:55:32.278Z,2.20
2018-12-02T15:58:02.194Z,2.20
2018-12-02T16:00:32.006Z,2.20
2018-12-02T16:03:00.553Z,2.20
2018-12-02T16:05:29.085Z,2.20
2018-12-02T16:07:57.629Z,2.20
2018-12-02T16:10:26.137Z,2.20
2018-12-02T16:12:54.909Z,2.20
2018-12-02T16:15:25.154Z,2.20
2018-12-02T16:17:53.759Z,2.20
2018-12-02T16:20:25.528Z,2.20
2018-12-02T16:22:54.005Z,2.20
2018-12-02T16:25:22.589Z,2.30
2018-12-02T16:27:51.109Z,2.30
2018-12-02T16:30:20.394Z,2.30
2018-12-02T16:32:51.045Z,2.30
2018-12-02T16:35:19.895Z,2.30
2018-12-02T16:37:50.361Z,2.30
2018-12-02T16:40:20.916Z,2.30
2018-12-02T16:42:49.473Z,2.30
2018-12-02T16:45:18.693Z,2.30
2018-12-02T16:47:48.445Z,2.30
2018-12-02T16:50:26.048Z,2.30
2018-12-02T16:52:56.146Z,2.30
2018-12-02T16:55:29.194Z,2.30
2018-12-02T16:58:22.557Z,2.30
2018-12-02T17:00:55.864Z,2.30
2018-12-02T17:03:24.396Z,2.30
2018-12-02T17:05:52.932Z,2.30
2018-12-02T17:08:21.485Z,2.30
2018-12-02T17:10:50.611Z,2.30
2018-12-02T17:13:18.605Z,2.30
2018-12-02T17:15:47.104Z,2.30
2018-12-02T17:18:15.624Z,2.30
2018-12-02T17:20:44.137Z,2.30
2018-12-02T17:23:12.916Z,2.30
2018-12-02T17:25:41.482Z,2.30
2018-12-02T17:28:09.972Z,2.30
2018-12-02T17:30:46.108Z,2.30
2018-12-02T17:33:14.611Z,2.20
2018-12-02T17:35:43.133Z,2.20
2018-12-02T17:38:11.668Z,2.20
2018-12-02T17:40:40.192Z,2.20
2018-12-02T17:43:10.647Z,2.20
2018-12-02T17:45:39.220Z,2.20
2018-12-02T17:48:07.830Z,2.20
2018-12-02T17:50:36.420Z,2.20
2018-12-02T17:53:06.357Z,2.20
2018-12-02T17:55:35.236Z,2.20
2018-12-02T17:58:03.856Z,2.20
2018-12-02T18:00:32.468Z,2.20
2018-12-02T18:03:02.028Z,2.20
2018-12-02T18:05:33.392Z,2.20
2018-12-02T18:08:01.915Z,2.20
2018-12-02T18:10:30.510Z,2.20
2018-12-02T18:13:00.732Z,2.20
2018-12-02T18:15:29.259Z,2.20
2018-12-02T18:17:57.787Z,2.20
2018-12-02T18:20:26.337Z,2.20
2018-12-02T18:22:54.875Z,2.20
2018-12-02T18:25:23.401Z,2.20
2018-12-02T18:27:51.899Z,2.20
2018-12-02T18:30:21.631Z,2.20
2018-12-02T18:32:51.734Z,2.20
2018-12-02T18:35:38.177Z,2.20
2018-12-02T18:38:09.671Z,2.20
2018-12-02T18:40:39.275Z,2.20
2018-12-02T18:43:08.183Z,2.20
2018-12-02T18:45:38.301Z,2.20
2018-12-02T18:48:06.803Z,2.20
2018-12-02T18:50:35.426Z,2.20
2018-12-02T18:53:03.959Z,2.20
2018-12-02T18:55:32.479Z,2.20
2018-12-02T18:58:00.975Z,2.20
2018-12-02T19:00:34.930Z,2.20
2018-12-02T19:03:03.451Z,2.20
2018-12-02T19:05:32.980Z,2.20
2018-12-02T19:08:00.580Z,2.20
2018-12-02T19:10:30.278Z,2.20
2018-12-02T19:12:57.845Z,2.20
2018-12-02T19:15:26.394Z,2.20
2018-12-02T19:17:54.947Z,2.20
2018-12-02T19:20:25.294Z,2.20
2018-12-02T19:22:55.202Z,2.20
2018-12-02T19:25:25.262Z,2.20
2018-12-02T19:27:53.775Z,2.20
2018-12-02T19:30:22.304Z,2.20
2018-12-02T19:32:50.838Z,2.20
2018-12-02T19:35:24.990Z,2.20
2018-12-02T19:37:55.242Z,2.20
2018-12-02T19:40:23.760Z,2.30
2018-12-02T19:42:52.442Z,2.20
2018-12-02T19:45:21.207Z,2.30
2018-12-02T19:47:49.718Z,2.30
2018-12-02T19:50:19.086Z,2.30
2018-12-02T19:52:48.334Z,2.30
2018-12-02T19:55:16.839Z,2.30
2018-12-02T19:57:47.717Z,2.30
2018-12-02T20:00:23.642Z,2.30
2018-12-02T20:02:52.285Z,2.30
2018-12-02T20:05:20.946Z,2.30
2018-12-02T20:07:52.076Z,2.30
2018-12-02T20:10:22.278Z,2.30
2018-12-02T20:12:50.782Z,2.30
2018-12-02T20:15:19.289Z,2.30
2018-12-02T20:17:47.805Z,2.30
2018-12-02T20:20:23.117Z,2.30
2018-12-02T20:22:52.281Z,2.30
2018-12-02T20:25:22.059Z,2.30
2018-12-02T20:27:52.089Z,2.30
2018-12-02T20:30:21.725Z,2.30
2018-12-02T20:32:50.335Z,2.30
2018-12-02T20:35:18.845Z,2.40
2018-12-02T20:37:47.373Z,2.40
2018-12-02T20:40:21.970Z,2.40
2018-12-02T20:42:51.064Z,2.30
2018-12-02T20:45:19.620Z,2.40
2018-12-02T20:47:48.149Z,2.40
2018-12-02T20:50:18.341Z,2.40
2018-12-02T20:52:47.512Z,2.40
2018-12-02T20:55:30.840Z,2.40
2018-12-02T20:58:01.758Z,2.40
2018-12-02T21:00:30.932Z,2.40
2018-12-02T21:03:06.700Z,2.40
2018-12-02T21:05:37.107Z,2.40
2018-12-02T21:08:06.152Z,2.40
2018-12-02T21:10:34.885Z,2.40
2018-12-02T21:13:03.376Z,2.40
2018-12-02T21:15:31.923Z,2.50
2018-12-02T21:18:00.427Z,2.50
2018-12-02T21:20:29.028Z,2.50
2018-12-02T21:22:57.553Z,2.50
2018-12-02T21:25:26.755Z,2.50
2018-12-02T21:27:55.291Z,2.50
2018-12-02T21:30:26.268Z,2.50
2018-12-02T21:32:54.768Z,2.50
2018-12-02T21:35:23.283Z,2.50
2018-12-02T21:37:53.300Z,2.50
2018-12-02T21:40:21.826Z,2.50
2018-12-02T21:42:50.399Z,2.50
2018-12-02T21:45:19.120Z,2.50
2018-12-02T21:47:49.824Z,2.50
2018-12-02T21:50:23.667Z,2.50
2018-12-02T21:52:52.228Z,2.50
2018-12-02T21:55:20.734Z,2.60
2018-12-02T21:57:49.231Z,2.60
2018-12-02T22:00:23.538Z,2.50
2018-12-02T22:02:52.926Z,2.60
2018-12-02T22:05:21.435Z,2.60
2018-12-02T22:07:50.743Z,2.60
2018-12-02T22:10:33.972Z,2.60
2018-12-02T22:13:02.463Z,2.60
2018-12-02T22:15:31.023Z,2.60
2018-12-02T22:17:59.552Z,2.60
2018-12-02T22:20:28.035Z,2.60
2018-12-02T22:22:56.535Z,2.60
2018-12-02T22:25:25.043Z,2.60
2018-12-02T22:27:54.819Z,2.60
2018-12-02T22:30:24.255Z,2.70
2018-12-02T22:32:53.167Z,2.70
2018-12-02T22:35:21.838Z,2.70
2018-12-02T22:37:50.408Z,2.70
2018-12-02T22:40:21.662Z,2.70
2018-12-02T22:43:34.246Z,2.70
2018-12-02T22:46:15.742Z,2.80
2018-12-02T22:48:56.534Z,2.70
2018-12-02T22:51:38.046Z,2.80
2018-12-02T22:54:19.134Z,2.70
2018-12-02T22:57:00.339Z,2.80
2018-12-02T22:59:41.910Z,2.80
2018-12-02T23:05:21.865Z,2.80
2018-12-02T23:08:03.037Z,2.80
2018-12-02T23:10:44.377Z,2.80
2018-12-02T23:13:25.269Z,2.80
2018-12-02T23:16:06.413Z,2.80
2018-12-02T23:18:47.307Z,2.80
2018-12-02T23:21:28.737Z,2.80
2018-12-02T23:24:10.045Z,2.80
2018-12-02T23:26:51.397Z,2.80
2018-12-02T23:29:32.176Z,2.80
2018-12-02T23:32:13.482Z,2.90
2018-12-02T23:34:54.685Z,2.90
2018-12-02T23:37:36.072Z,2.80
2018-12-02T23:40:17.265Z,2.80
2018-12-02T23:42:58.857Z,2.90
2018-12-02T23:45:38.792Z,2.90
2018-12-02T23:48:20.184Z,2.90
2018-12-02T23:51:01.720Z,2.90
2018-12-02T23:53:43.226Z,2.90
2018-12-02T23:56:24.509Z,2.90
2018-12-02T23:59:06.077Z,2.90
